Time,TemperatureF,DewpointF,PressureIn,WindDirection,WindDirectionDegrees,WindSpeedMPH,WindSpeedGustMPH,Humidity,HourlyPrecipIn,Conditions,Clouds,dailyrainin,SolarRadiationWatts/m^2,SoftwareType,DateUTC
2013-06-27 00:01:00,60.0,45.0,-100.00,West,259,2.0,10.0,57,0.00,,,0.00,0.000000,,2013-06-27 06:01:00,
2013-06-27 00:23:00,60.0,45.0,-100.00,SSE,165,2.0,7.0,58,0.00,,,0.00,0.000000,,2013-06-27 06:23:00,
2013-06-27 00:34:00,60.0,45.0,-100.00,SSE,165,2.0,7.0,58,0.00,,,0.00,0.000000,,2013-06-27 06:34:00,
2013-06-27 00:43:00,60.0,45.0,-100.00,SSE,165,2.0,7.0,58,0.00,,,0.00,0.000000,,2013-06-27 06:43:00,
2013-06-27 00:53:00,60.0,45.0,-100.00,SSE,165,2.0,7.0,58,0.00,,,0.00,0.000000,,2013-06-27 06:53:00,
2013-06-27 01:02:00,60.0,45.0,-100.00,SSE,165,2.0,7.0,58,0.00,,,0.00,0.000000,,2013-06-27 07:02:00,
2013-06-27 01:22:00,58.0,44.0,-100.00,WSW,239,1.0,6.0,60,0.00,,,0.00,0.000000,,2013-06-27 07:22:00,
2013-06-27 01:34:00,58.0,44.0,-100.00,WSW,239,1.0,6.0,60,0.00,,,0.00,0.000000,,2013-06-27 07:34:00,
2013-06-27 01:42:00,58.0,44.0,-100.00,WSW,239,1.0,6.0,60,0.00,,,0.00,0.000000,,2013-06-27 07:42:00,
2013-06-27 01:52:00,58.0,44.0,-100.00,WSW,239,1.0,6.0,60,0.00,,,0.00,0.000000,,2013-06-27 07:52:00,
2013-06-27 02:01:00,58.0,44.0,-100.00,WSW,239,1.0,6.0,60,0.00,,,0.00,0.000000,,2013-06-27 08:01:00,
2013-06-27 02:22:00,58.0,45.0,-100.00,WSW,258,0.0,6.0,61,0.00,,,0.00,0.000000,,2013-06-27 08:22:00,
2013-06-27 02:34:00,58.0,45.0,-100.00,WSW,258,0.0,6.0,61,0.00,,,0.00,0.000000,,2013-06-27 08:34:00,
2013-06-27 02:52:00,58.0,45.0,-100.00,WSW,258,0.0,6.0,61,0.00,,,0.00,0.000000,,2013-06-27 08:52:00,
2013-06-27 03:02:00,58.0,45.0,-100.00,WSW,258,0.0,6.0,61,0.00,,,0.00,0.000000,,2013-06-27 09:02:00,
2013-06-27 03:22:00,55.0,44.0,-100.00,WSW,241,4.0,7.0,66,0.00,,,0.00,0.000000,,2013-06-27 09:22:00,
2013-06-27 03:34:00,55.0,44.0,-100.00,WSW,241,4.0,7.0,66,0.00,,,0.00,0.000000,,2013-06-27 09:34:00,
2013-06-27 03:43:00,55.0,44.0,-100.00,WSW,241,4.0,7.0,66,0.00,,,0.00,0.000000,,2013-06-27 09:43:00,
2013-06-27 03:53:00,55.0,44.0,-100.00,WSW,241,4.0,7.0,66,0.00,,,0.00,0.000000,,2013-06-27 09:53:00,
2013-06-27 04:01:00,55.0,44.0,-100.00,WSW,241,4.0,7.0,66,0.00,,,0.00,0.000000,,2013-06-27 10:01:00,
2013-06-27 04:22:00,53.0,42.0,-100.00,SW,230,5.0,8.0,67,0.00,,,0.00,0.000000,,2013-06-27 10:22:00,
2013-06-27 04:32:00,53.0,42.0,-100.00,SW,230,5.0,8.0,67,0.00,,,0.00,0.000000,,2013-06-27 10:32:00,
2013-06-27 04:44:00,53.0,42.0,-100.00,SW,230,5.0,8.0,67,0.00,,,0.00,0.000000,,2013-06-27 10:44:00,
2013-06-27 04:54:00,53.0,42.0,-100.00,SW,230,5.0,8.0,67,0.00,,,0.00,0.000000,,2013-06-27 10:54:00,
2013-06-27 05:01:00,53.0,42.0,-100.00,SW,230,5.0,8.0,67,0.00,,,0.00,0.000000,,2013-06-27 11:01:00,
2013-06-27 05:22:00,52.0,43.0,-100.00,SW,230,6.0,10.0,70,0.00,,,0.00,0.000000,,2013-06-27 11:22:00,
2013-06-27 05:33:00,52.0,43.0,-100.00,SW,230,6.0,10.0,70,0.00,,,0.00,0.000000,,2013-06-27 11:33:00,
2013-06-27 05:43:00,52.0,43.0,-100.00,SW,230,6.0,10.0,70,0.00,,,0.00,0.000000,,2013-06-27 11:43:00,
2013-06-27 05:52:00,52.0,43.0,-100.00,SW,230,6.0,10.0,70,0.00,,,0.00,0.000000,,2013-06-27 11:52:00,
2013-06-27 06:01:00,52.0,43.0,-100.00,SW,230,6.0,10.0,70,0.00,,,0.00,0.000000,,2013-06-27 12:01:00,
2013-06-27 06:22:00,52.0,43.0,-100.00,WSW,239,6.0,10.0,71,0.00,,,0.00,4.000000,,2013-06-27 12:22:00,
2013-06-27 06:34:00,52.0,43.0,-100.00,WSW,239,6.0,10.0,71,0.00,,,0.00,4.000000,,2013-06-27 12:34:00,
2013-06-27 06:42:00,52.0,43.0,-100.00,WSW,239,6.0,10.0,71,0.00,,,0.00,4.000000,,2013-06-27 12:42:00,
2013-06-27 07:01:00,52.0,43.0,-100.00,WSW,239,6.0,10.0,71,0.00,,,0.00,4.000000,,2013-06-27 13:01:00,
2013-06-27 08:01:00,59.0,45.0,-100.00,West,271,0.0,8.0,60,0.00,,,0.00,112.000000,,2013-06-27 14:01:00,
2013-06-27 09:42:00,70.0,47.0,-100.00,East,91,5.0,7.0,44,-99.99,,,0.00,502.000000,,2013-06-27 15:42:00,
2013-06-27 09:52:00,70.0,47.0,-100.00,East,91,5.0,7.0,44,-99.99,,,0.00,502.000000,,2013-06-27 15:52:00,
2013-06-27 10:02:00,70.0,47.0,-100.00,East,91,5.0,7.0,44,-99.99,,,0.00,502.000000,,2013-06-27 16:02:00,
2013-06-27 10:23:00,72.0,48.0,-100.00,NE,55,5.0,10.0,42,0.00,,,0.00,715.000000,,2013-06-27 16:23:00,
2013-06-27 10:34:00,72.0,48.0,-100.00,NE,55,5.0,10.0,42,0.00,,,0.00,715.000000,,2013-06-27 16:34:00,
2013-06-27 10:43:00,72.0,48.0,-100.00,NE,55,5.0,10.0,42,0.00,,,0.00,715.000000,,2013-06-27 16:43:00,
2013-06-27 10:53:00,72.0,48.0,-100.00,NE,55,5.0,10.0,42,0.00,,,0.00,715.000000,,2013-06-27 16:53:00,
2013-06-27 11:01:00,72.0,48.0,-100.00,NE,55,5.0,10.0,42,0.00,,,0.00,715.000000,,2013-06-27 17:01:00,
2013-06-27 11:33:00,73.0,47.0,-100.00,SE,127,4.0,9.0,39,0.00,,,0.00,884.000000,,2013-06-27 17:33:00,
2013-06-27 11:43:00,73.0,47.0,-100.00,SE,127,4.0,9.0,39,0.00,,,0.00,884.000000,,2013-06-27 17:43:00,
2013-06-27 11:53:00,73.0,47.0,-100.00,SE,127,4.0,9.0,39,0.00,,,0.00,884.000000,,2013-06-27 17:53:00,
2013-06-27 12:01:00,73.0,47.0,-100.00,SE,127,4.0,9.0,39,0.00,,,0.00,884.000000,,2013-06-27 18:01:00,
2013-06-27 13:34:00,78.0,48.0,-100.00,NE,52,6.0,13.0,35,0.00,,,0.00,1121.000000,,2013-06-27 19:34:00,
2013-06-27 13:42:00,78.0,48.0,-100.00,NE,52,6.0,13.0,35,0.00,,,0.00,1121.000000,,2013-06-27 19:42:00,
2013-06-27 13:53:00,78.0,48.0,-100.00,NE,52,6.0,13.0,35,0.00,,,0.00,1121.000000,,2013-06-27 19:53:00,
2013-06-27 14:01:00,78.0,48.0,-100.00,NE,52,6.0,13.0,35,0.00,,,0.00,1121.000000,,2013-06-27 20:01:00,
2013-06-27 14:47:00,80.0,48.0,-100.00,NE,48,8.0,15.0,33,0.00,,,0.00,1144.000000,,2013-06-27 20:47:00,
2013-06-27 14:54:00,80.0,48.0,-100.00,NE,48,8.0,15.0,33,0.00,,,0.00,1144.000000,,2013-06-27 20:54:00,
2013-06-27 15:01:00,80.0,48.0,-100.00,NE,48,8.0,15.0,33,0.00,,,0.00,1144.000000,,2013-06-27 21:01:00,
2013-06-27 15:36:00,81.0,48.0,-100.00,ENE,60,8.0,14.0,32,0.00,,,0.00,1095.000000,,2013-06-27 21:36:00,
2013-06-27 15:48:00,81.0,48.0,-100.00,ENE,60,8.0,14.0,32,0.00,,,0.00,1095.000000,,2013-06-27 21:48:00,
2013-06-27 15:53:00,81.0,48.0,-100.00,ENE,60,8.0,14.0,32,0.00,,,0.00,1095.000000,,2013-06-27 21:53:00,
2013-06-27 16:02:00,81.0,48.0,-100.00,ENE,60,8.0,14.0,32,0.00,,,0.00,1095.000000,,2013-06-27 22:02:00,
2013-06-27 16:35:00,82.0,47.0,-100.00,NE,43,5.0,15.0,29,0.00,,,0.00,1059.000000,,2013-06-27 22:35:00,
2013-06-27 16:48:00,82.0,47.0,-100.00,NE,43,5.0,15.0,29,0.00,,,0.00,1059.000000,,2013-06-27 22:48:00,
2013-06-27 16:57:00,82.0,47.0,-100.00,NE,43,5.0,15.0,29,0.00,,,0.00,1059.000000,,2013-06-27 22:57:00,
2013-06-27 17:25:00,84.0,48.0,-100.00,ENE,63,7.0,14.0,29,0.00,,,0.00,908.000000,,2013-06-27 23:25:00,
2013-06-27 17:36:00,84.0,48.0,-100.00,ENE,63,7.0,14.0,29,0.00,,,0.00,908.000000,,2013-06-27 23:36:00,
2013-06-27 17:46:00,84.0,48.0,-100.00,ENE,63,7.0,14.0,29,0.00,,,0.00,908.000000,,2013-06-27 23:46:00,
2013-06-27 17:56:00,84.0,48.0,-100.00,ENE,63,7.0,14.0,29,0.00,,,0.00,908.000000,,2013-06-27 23:56:00,
2013-06-27 18:02:00,84.0,48.0,-100.00,ENE,63,7.0,14.0,29,0.00,,,0.00,908.000000,,2013-06-28 00:02:00,
2013-06-27 18:37:00,86.0,48.0,-100.00,NNE,20,9.0,18.0,27,0.00,,,0.00,641.000000,,2013-06-28 00:37:00,
2013-06-27 18:45:00,86.0,48.0,-100.00,NNE,20,9.0,18.0,27,0.00,,,0.00,641.000000,,2013-06-28 00:45:00,
2013-06-27 19:36:00,85.0,46.0,-100.00,ENE,62,7.0,16.0,26,0.00,,,0.00,410.000000,,2013-06-28 01:36:00,
2013-06-27 19:47:00,85.0,46.0,-100.00,ENE,62,7.0,16.0,26,0.00,,,0.00,410.000000,,2013-06-28 01:47:00,
2013-06-27 19:56:00,85.0,46.0,-100.00,ENE,62,7.0,16.0,26,0.00,,,0.00,410.000000,,2013-06-28 01:56:00,
2013-06-27 20:02:00,85.0,46.0,-100.00,ENE,62,7.0,16.0,26,0.00,,,0.00,410.000000,,2013-06-28 02:02:00,
2013-06-27 20:28:00,84.0,45.0,-100.00,NNE,19,10.0,19.0,26,0.00,,,0.00,332.000000,,2013-06-28 02:28:00,
2013-06-27 20:37:00,84.0,45.0,-100.00,NNE,19,10.0,19.0,26,0.00,,,0.00,332.000000,,2013-06-28 02:37:00,
2013-06-27 20:49:00,84.0,45.0,-100.00,NNE,19,10.0,19.0,26,0.00,,,0.00,332.000000,,2013-06-28 02:49:00,
2013-06-27 20:55:00,84.0,45.0,-100.00,NNE,19,10.0,19.0,26,0.00,,,0.00,332.000000,,2013-06-28 02:55:00,
2013-06-27 21:02:00,84.0,45.0,-100.00,NNE,19,10.0,19.0,26,0.00,,,0.00,332.000000,,2013-06-28 03:02:00,
2013-06-27 21:28:00,75.0,44.0,-100.00,NW,314,6.0,18.0,33,0.00,,,0.00,97.000000,,2013-06-28 03:28:00,
2013-06-27 21:46:00,75.0,44.0,-100.00,NW,314,6.0,18.0,33,0.00,,,0.00,97.000000,,2013-06-28 03:46:00,
2013-06-27 21:56:00,75.0,44.0,-100.00,NW,314,6.0,18.0,33,0.00,,,0.00,97.000000,,2013-06-28 03:56:00,
2013-06-27 22:02:00,75.0,44.0,-100.00,NW,314,6.0,18.0,33,0.00,,,0.00,97.000000,,2013-06-28 04:02:00,
2013-06-27 22:22:00,74.0,43.0,-100.00,NW,319,10.0,15.0,33,0.00,,,0.00,3.000000,,2013-06-28 04:22:00,
2013-06-27 22:33:00,74.0,43.0,-100.00,NW,319,10.0,15.0,33,0.00,,,0.00,3.000000,,2013-06-28 04:33:00,
2013-06-27 22:43:00,74.0,43.0,-100.00,NW,319,10.0,15.0,33,0.00,,,0.00,3.000000,,2013-06-28 04:43:00,
2013-06-27 22:53:00,74.0,43.0,-100.00,NW,319,10.0,15.0,33,0.00,,,0.00,3.000000,,2013-06-28 04:53:00,
2013-06-27 23:01:00,74.0,43.0,-100.00,NW,319,10.0,15.0,33,0.00,,,0.00,3.000000,,2013-06-28 05:01:00,
2013-06-27 23:22:00,74.0,42.0,-100.00,NW,311,10.0,18.0,32,0.00,,,0.00,0.000000,,2013-06-28 05:22:00,